sensor_id;sensor_type;location;lat;lon;timestamp;P1;durP1;ratioP1;P2;durP2;ratioP2
44995;SDS011;30729;49.486;10.792;2023-05-07T00:02:06;10.38;;;5.18;;
44995;SDS011;30729;49.486;10.792;2023-05-07T00:04:32;11.48;;;6.13;;
44995;SDS011;30729;49.486;10.792;2023-05-07T00:07:01;13.95;;;6.28;;
44995;SDS011;30729;49.486;10.792;2023-05-07T00:09:26;13.00;;;6.97;;
44995;SDS011;30729;49.486;10.792;2023-05-07T00:11:52;15.02;;;7.97;;
44995;SDS011;30729;49.486;10.792;2023-05-07T00:14:17;14.00;;;7.17;;
44995;SDS011;30729;49.486;10.792;2023-05-07T00:16:42;14.90;;;7.70;;
44995;SDS011;30729;49.486;10.792;2023-05-07T00:19:07;11.13;;;5.60;;
44995;SDS011;30729;49.486;10.792;2023-05-07T00:21:32;10.32;;;5.75;;
44995;SDS011;30729;49.486;10.792;2023-05-07T00:23:58;8.88;;;5.25;;
44995;SDS011;30729;49.486;10.792;2023-05-07T00:26:23;9.20;;;4.75;;
44995;SDS011;30729;49.486;10.792;2023-05-07T00:28:48;10.35;;;4.80;;
44995;SDS011;30729;49.486;10.792;2023-05-07T00:31:13;9.43;;;4.90;;
44995;SDS011;30729;49.486;10.792;2023-05-07T00:33:38;9.73;;;4.45;;
44995;SDS011;30729;49.486;10.792;2023-05-07T00:36:04;7.10;;;4.32;;
44995;SDS011;30729;49.486;10.792;2023-05-07T00:38:29;6.75;;;3.92;;
44995;SDS011;30729;49.486;10.792;2023-05-07T00:40:54;8.27;;;4.30;;
44995;SDS011;30729;49.486;10.792;2023-05-07T00:43:19;7.95;;;3.85;;
44995;SDS011;30729;49.486;10.792;2023-05-07T00:45:44;6.60;;;3.47;;
44995;SDS011;30729;49.486;10.792;2023-05-07T00:48:11;7.90;;;4.05;;
44995;SDS011;30729;49.486;10.792;2023-05-07T00:50:36;7.75;;;4.00;;
44995;SDS011;30729;49.486;10.792;2023-05-07T00:53:01;7.03;;;3.70;;
44995;SDS011;30729;49.486;10.792;2023-05-07T00:55:27;7.05;;;3.72;;
44995;SDS011;30729;49.486;10.792;2023-05-07T00:57:53;6.85;;;3.28;;
44995;SDS011;30729;49.486;10.792;2023-05-07T01:00:18;6.97;;;3.40;;
44995;SDS011;30729;49.486;10.792;2023-05-07T01:02:43;8.70;;;3.50;;
44995;SDS011;30729;49.486;10.792;2023-05-07T01:05:09;7.70;;;3.40;;
44995;SDS011;30729;49.486;10.792;2023-05-07T01:07:35;7.63;;;3.65;;
44995;SDS011;30729;49.486;10.792;2023-05-07T01:10:02;8.30;;;3.90;;
44995;SDS011;30729;49.486;10.792;2023-05-07T01:12:28;8.85;;;3.60;;
44995;SDS011;30729;49.486;10.792;2023-05-07T01:14:53;8.93;;;3.38;;
44995;SDS011;30729;49.486;10.792;2023-05-07T01:17:19;8.60;;;4.28;;
44995;SDS011;30729;49.486;10.792;2023-05-07T01:19:44;7.82;;;3.50;;
44995;SDS011;30729;49.486;10.792;2023-05-07T01:22:09;6.38;;;3.55;;
44995;SDS011;30729;49.486;10.792;2023-05-07T01:24:36;8.02;;;3.90;;
44995;SDS011;30729;49.486;10.792;2023-05-07T01:27:01;11.52;;;4.03;;
44995;SDS011;30729;49.486;10.792;2023-05-07T01:29:27;6.75;;;3.63;;
44995;SDS011;30729;49.486;10.792;2023-05-07T01:31:52;12.40;;;3.55;;
44995;SDS011;30729;49.486;10.792;2023-05-07T01:34:17;8.05;;;3.83;;
44995;SDS011;30729;49.486;10.792;2023-05-07T01:36:43;6.88;;;3.40;;
44995;SDS011;30729;49.486;10.792;2023-05-07T01:39:09;8.00;;;3.50;;
44995;SDS011;30729;49.486;10.792;2023-05-07T01:41:34;6.43;;;3.30;;
44995;SDS011;30729;49.486;10.792;2023-05-07T01:44:00;8.20;;;3.35;;
44995;SDS011;30729;49.486;10.792;2023-05-07T01:46:26;6.00;;;3.25;;
44995;SDS011;30729;49.486;10.792;2023-05-07T01:48:51;9.30;;;3.60;;
44995;SDS011;30729;49.486;10.792;2023-05-07T01:51:16;5.63;;;2.80;;
44995;SDS011;30729;49.486;10.792;2023-05-07T01:53:41;8.25;;;3.40;;
44995;SDS011;30729;49.486;10.792;2023-05-07T01:56:08;7.10;;;3.42;;
44995;SDS011;30729;49.486;10.792;2023-05-07T01:58:33;7.65;;;3.50;;
44995;SDS011;30729;49.486;10.792;2023-05-07T02:00:59;6.23;;;3.43;;
44995;SDS011;30729;49.486;10.792;2023-05-07T02:03:24;8.07;;;3.50;;
44995;SDS011;30729;49.486;10.792;2023-05-07T02:05:49;6.38;;;3.45;;
44995;SDS011;30729;49.486;10.792;2023-05-07T02:08:14;7.93;;;3.00;;
44995;SDS011;30729;49.486;10.792;2023-05-07T02:10:39;7.13;;;3.85;;
44995;SDS011;30729;49.486;10.792;2023-05-07T02:13:05;7.10;;;4.10;;
44995;SDS011;30729;49.486;10.792;2023-05-07T02:15:30;6.83;;;3.77;;
44995;SDS011;30729;49.486;10.792;2023-05-07T02:17:59;7.00;;;3.60;;
44995;SDS011;30729;49.486;10.792;2023-05-07T02:20:24;7.10;;;3.80;;
44995;SDS011;30729;49.486;10.792;2023-05-07T02:22:50;7.68;;;3.55;;
44995;SDS011;30729;49.486;10.792;2023-05-07T02:25:15;7.13;;;3.83;;
44995;SDS011;30729;49.486;10.792;2023-05-07T02:27:40;8.27;;;3.60;;
44995;SDS011;30729;49.486;10.792;2023-05-07T02:30:05;6.93;;;4.00;;
44995;SDS011;30729;49.486;10.792;2023-05-07T02:32:31;8.38;;;3.88;;
44995;SDS011;30729;49.486;10.792;2023-05-07T02:34:56;8.80;;;3.97;;
44995;SDS011;30729;49.486;10.792;2023-05-07T02:37:21;7.10;;;4.07;;
44995;SDS011;30729;49.486;10.792;2023-05-07T02:39:46;6.18;;;3.60;;
44995;SDS011;30729;49.486;10.792;2023-05-07T02:42:11;8.05;;;4.10;;
44995;SDS011;30729;49.486;10.792;2023-05-07T02:44:36;7.60;;;3.85;;
44995;SDS011;30729;49.486;10.792;2023-05-07T02:47:01;8.27;;;3.93;;
44995;SDS011;30729;49.486;10.792;2023-05-07T02:49:27;6.80;;;3.60;;
44995;SDS011;30729;49.486;10.792;2023-05-07T02:51:52;8.73;;;3.57;;
44995;SDS011;30729;49.486;10.792;2023-05-07T02:54:17;8.02;;;4.20;;
44995;SDS011;30729;49.486;10.792;2023-05-07T02:56:42;7.18;;;3.95;;
44995;SDS011;30729;49.486;10.792;2023-05-07T02:59:08;10.63;;;3.87;;
44995;SDS011;30729;49.486;10.792;2023-05-07T03:01:33;8.10;;;3.90;;
44995;SDS011;30729;49.486;10.792;2023-05-07T03:03:58;9.25;;;3.92;;
44995;SDS011;30729;49.486;10.792;2023-05-07T03:06:23;7.53;;;4.20;;
44995;SDS011;30729;49.486;10.792;2023-05-07T03:08:48;6.40;;;4.05;;
44995;SDS011;30729;49.486;10.792;2023-05-07T03:11:13;6.90;;;3.90;;
44995;SDS011;30729;49.486;10.792;2023-05-07T03:13:39;6.45;;;4.00;;
44995;SDS011;30729;49.486;10.792;2023-05-07T03:16:04;7.38;;;3.90;;
44995;SDS011;30729;49.486;10.792;2023-05-07T03:18:30;8.13;;;4.38;;
44995;SDS011;30729;49.486;10.792;2023-05-07T03:20:55;8.90;;;4.20;;
44995;SDS011;30729;49.486;10.792;2023-05-07T03:23:20;8.23;;;4.28;;
44995;SDS011;30729;49.486;10.792;2023-05-07T03:25:45;9.95;;;4.25;;
44995;SDS011;30729;49.486;10.792;2023-05-07T03:28:10;9.95;;;4.30;;
44995;SDS011;30729;49.486;10.792;2023-05-07T03:30:35;7.82;;;4.50;;
44995;SDS011;30729;49.486;10.792;2023-05-07T03:33:01;7.60;;;4.32;;
44995;SDS011;30729;49.486;10.792;2023-05-07T03:35:26;8.90;;;4.80;;
44995;SDS011;30729;49.486;10.792;2023-05-07T03:37:51;7.82;;;4.47;;
44995;SDS011;30729;49.486;10.792;2023-05-07T03:40:16;8.70;;;5.10;;
44995;SDS011;30729;49.486;10.792;2023-05-07T03:42:41;6.93;;;4.32;;
44995;SDS011;30729;49.486;10.792;2023-05-07T03:45:07;7.63;;;4.32;;
44995;SDS011;30729;49.486;10.792;2023-05-07T03:47:32;9.10;;;5.60;;
44995;SDS011;30729;49.486;10.792;2023-05-07T03:49:57;12.10;;;6.05;;
44995;SDS011;30729;49.486;10.792;2023-05-07T03:52:22;9.30;;;5.90;;
44995;SDS011;30729;49.486;10.792;2023-05-07T03:54:50;8.75;;;5.32;;
44995;SDS011;30729;49.486;10.792;2023-05-07T03:57:16;9.63;;;6.60;;
44995;SDS011;30729;49.486;10.792;2023-05-07T03:59:41;14.68;;;10.05;;
44995;SDS011;30729;49.486;10.792;2023-05-07T04:02:06;14.57;;;9.95;;
44995;SDS011;30729;49.486;10.792;2023-05-07T04:04:31;11.63;;;8.23;;
44995;SDS011;30729;49.486;10.792;2023-05-07T04:06:57;11.07;;;7.13;;
44995;SDS011;30729;49.486;10.792;2023-05-07T04:09:24;8.27;;;5.45;;
44995;SDS011;30729;49.486;10.792;2023-05-07T04:11:50;8.85;;;5.45;;
44995;SDS011;30729;49.486;10.792;2023-05-07T04:14:15;9.32;;;5.88;;
44995;SDS011;30729;49.486;10.792;2023-05-07T04:16:40;8.30;;;4.97;;
44995;SDS011;30729;49.486;10.792;2023-05-07T04:19:05;7.60;;;5.15;;
44995;SDS011;30729;49.486;10.792;2023-05-07T04:21:30;10.15;;;5.43;;
44995;SDS011;30729;49.486;10.792;2023-05-07T04:23:56;8.95;;;4.88;;
44995;SDS011;30729;49.486;10.792;2023-05-07T04:26:21;9.23;;;4.93;;
44995;SDS011;30729;49.486;10.792;2023-05-07T04:28:46;9.75;;;5.00;;
44995;SDS011;30729;49.486;10.792;2023-05-07T04:31:11;8.43;;;4.50;;
44995;SDS011;30729;49.486;10.792;2023-05-07T04:33:36;9.17;;;5.13;;
44995;SDS011;30729;49.486;10.792;2023-05-07T04:36:02;9.30;;;5.63;;
44995;SDS011;30729;49.486;10.792;2023-05-07T04:38:28;8.50;;;5.22;;
44995;SDS011;30729;49.486;10.792;2023-05-07T04:40:54;10.15;;;6.03;;
44995;SDS011;30729;49.486;10.792;2023-05-07T04:43:19;9.27;;;5.95;;
44995;SDS011;30729;49.486;10.792;2023-05-07T04:45:45;8.00;;;5.65;;
44995;SDS011;30729;49.486;10.792;2023-05-07T04:48:10;9.40;;;5.93;;
44995;SDS011;30729;49.486;10.792;2023-05-07T04:50:35;11.27;;;6.27;;
44995;SDS011;30729;49.486;10.792;2023-05-07T04:53:01;12.23;;;6.27;;
44995;SDS011;30729;49.486;10.792;2023-05-07T04:55:26;12.97;;;6.23;;
44995;SDS011;30729;49.486;10.792;2023-05-07T04:57:51;9.88;;;6.13;;
44995;SDS011;30729;49.486;10.792;2023-05-07T05:00:17;14.30;;;6.85;;
44995;SDS011;30729;49.486;10.792;2023-05-07T05:02:44;10.75;;;6.95;;
44995;SDS011;30729;49.486;10.792;2023-05-07T05:05:09;12.27;;;7.07;;
44995;SDS011;30729;49.486;10.792;2023-05-07T05:07:34;10.63;;;6.50;;
44995;SDS011;30729;49.486;10.792;2023-05-07T05:09:59;11.23;;;6.93;;
44995;SDS011;30729;49.486;10.792;2023-05-07T05:12:25;12.70;;;7.47;;
44995;SDS011;30729;49.486;10.792;2023-05-07T05:14:50;10.20;;;6.72;;
44995;SDS011;30729;49.486;10.792;2023-05-07T05:17:15;13.25;;;7.68;;
44995;SDS011;30729;49.486;10.792;2023-05-07T05:19:40;11.80;;;7.63;;
44995;SDS011;30729;49.486;10.792;2023-05-07T05:22:05;11.57;;;7.67;;
44995;SDS011;30729;49.486;10.792;2023-05-07T05:24:31;10.93;;;7.57;;
44995;SDS011;30729;49.486;10.792;2023-05-07T05:26:56;12.95;;;8.13;;
44995;SDS011;30729;49.486;10.792;2023-05-07T05:29:21;10.90;;;7.33;;
44995;SDS011;30729;49.486;10.792;2023-05-07T05:31:46;11.90;;;8.03;;
44995;SDS011;30729;49.486;10.792;2023-05-07T05:34:11;12.40;;;7.80;;
44995;SDS011;30729;49.486;10.792;2023-05-07T05:36:36;10.65;;;7.40;;
44995;SDS011;30729;49.486;10.792;2023-05-07T05:39:02;12.93;;;8.20;;
44995;SDS011;30729;49.486;10.792;2023-05-07T05:41:27;14.90;;;8.85;;
44995;SDS011;30729;49.486;10.792;2023-05-07T05:43:52;12.73;;;8.30;;
44995;SDS011;30729;49.486;10.792;2023-05-07T05:46:17;14.85;;;8.40;;
44995;SDS011;30729;49.486;10.792;2023-05-07T05:48:42;13.63;;;8.03;;
44995;SDS011;30729;49.486;10.792;2023-05-07T05:51:07;14.27;;;8.95;;
44995;SDS011;30729;49.486;10.792;2023-05-07T05:53:33;11.05;;;8.68;;
44995;SDS011;30729;49.486;10.792;2023-05-07T05:55:58;13.52;;;8.77;;
44995;SDS011;30729;49.486;10.792;2023-05-07T05:58:23;13.73;;;8.57;;
44995;SDS011;30729;49.486;10.792;2023-05-07T06:00:48;12.30;;;8.80;;
44995;SDS011;30729;49.486;10.792;2023-05-07T06:03:17;13.48;;;8.52;;
44995;SDS011;30729;49.486;10.792;2023-05-07T06:05:42;14.70;;;8.98;;
44995;SDS011;30729;49.486;10.792;2023-05-07T06:08:07;13.05;;;8.75;;
44995;SDS011;30729;49.486;10.792;2023-05-07T06:10:32;12.82;;;7.55;;
44995;SDS011;30729;49.486;10.792;2023-05-07T06:12:57;12.83;;;8.33;;
44995;SDS011;30729;49.486;10.792;2023-05-07T06:15:23;11.60;;;8.75;;
44995;SDS011;30729;49.486;10.792;2023-05-07T06:17:48;11.50;;;8.23;;
44995;SDS011;30729;49.486;10.792;2023-05-07T06:20:14;11.57;;;8.20;;
44995;SDS011;30729;49.486;10.792;2023-05-07T06:22:39;11.93;;;8.35;;
44995;SDS011;30729;49.486;10.792;2023-05-07T06:25:04;11.73;;;7.78;;
44995;SDS011;30729;49.486;10.792;2023-05-07T06:27:29;11.20;;;7.75;;
44995;SDS011;30729;49.486;10.792;2023-05-07T06:29:55;11.77;;;8.30;;
44995;SDS011;30729;49.486;10.792;2023-05-07T06:32:20;11.35;;;7.78;;
44995;SDS011;30729;49.486;10.792;2023-05-07T06:34:45;11.70;;;7.45;;
44995;SDS011;30729;49.486;10.792;2023-05-07T06:37:10;12.13;;;8.57;;
44995;SDS011;30729;49.486;10.792;2023-05-07T06:39:35;12.45;;;8.80;;
44995;SDS011;30729;49.486;10.792;2023-05-07T06:42:01;12.60;;;8.90;;
44995;SDS011;30729;49.486;10.792;2023-05-07T06:44:27;11.27;;;8.43;;
44995;SDS011;30729;49.486;10.792;2023-05-07T06:46:52;12.13;;;8.55;;
44995;SDS011;30729;49.486;10.792;2023-05-07T06:49:17;13.32;;;8.57;;
44995;SDS011;30729;49.486;10.792;2023-05-07T06:51:42;13.97;;;8.30;;
44995;SDS011;30729;49.486;10.792;2023-05-07T06:54:07;14.02;;;8.55;;
44995;SDS011;30729;49.486;10.792;2023-05-07T06:56:32;12.13;;;8.73;;
44995;SDS011;30729;49.486;10.792;2023-05-07T06:58:59;13.88;;;8.63;;
44995;SDS011;30729;49.486;10.792;2023-05-07T07:01:24;13.02;;;8.57;;
44995;SDS011;30729;49.486;10.792;2023-05-07T07:03:49;13.68;;;8.43;;
44995;SDS011;30729;49.486;10.792;2023-05-07T07:06:16;12.85;;;7.35;;
44995;SDS011;30729;49.486;10.792;2023-05-07T07:08:41;13.55;;;8.73;;
44995;SDS011;30729;49.486;10.792;2023-05-07T07:11:07;13.52;;;9.35;;
44995;SDS011;30729;49.486;10.792;2023-05-07T07:13:33;11.68;;;7.95;;
44995;SDS011;30729;49.486;10.792;2023-05-07T07:15:58;11.32;;;7.70;;
44995;SDS011;30729;49.486;10.792;2023-05-07T07:18:23;11.82;;;8.68;;
44995;SDS011;30729;49.486;10.792;2023-05-07T07:20:48;13.07;;;8.40;;
44995;SDS011;30729;49.486;10.792;2023-05-07T07:23:13;15.50;;;8.68;;
44995;SDS011;30729;49.486;10.792;2023-05-07T07:25:39;11.63;;;8.02;;
44995;SDS011;30729;49.486;10.792;2023-05-07T07:28:04;11.65;;;8.57;;
44995;SDS011;30729;49.486;10.792;2023-05-07T07:30:30;13.30;;;8.68;;
44995;SDS011;30729;49.486;10.792;2023-05-07T07:32:55;11.45;;;8.32;;
44995;SDS011;30729;49.486;10.792;2023-05-07T07:35:25;15.68;;;8.80;;
44995;SDS011;30729;49.486;10.792;2023-05-07T07:37:50;12.63;;;8.98;;
44995;SDS011;30729;49.486;10.792;2023-05-07T07:40:15;12.95;;;8.18;;
44995;SDS011;30729;49.486;10.792;2023-05-07T07:42:41;15.05;;;9.50;;
44995;SDS011;30729;49.486;10.792;2023-05-07T07:45:06;12.27;;;7.97;;
44995;SDS011;30729;49.486;10.792;2023-05-07T07:47:31;13.15;;;8.32;;
44995;SDS011;30729;49.486;10.792;2023-05-07T07:49:56;13.32;;;8.30;;
44995;SDS011;30729;49.486;10.792;2023-05-07T07:52:22;10.90;;;7.23;;
44995;SDS011;30729;49.486;10.792;2023-05-07T07:54:47;13.32;;;8.43;;
44995;SDS011;30729;49.486;10.792;2023-05-07T07:57:12;12.77;;;8.27;;
44995;SDS011;30729;49.486;10.792;2023-05-07T07:59:37;10.88;;;7.65;;
44995;SDS011;30729;49.486;10.792;2023-05-07T08:02:02;12.43;;;7.63;;
44995;SDS011;30729;49.486;10.792;2023-05-07T08:04:27;11.00;;;7.20;;
44995;SDS011;30729;49.486;10.792;2023-05-07T08:06:53;10.27;;;6.70;;
44995;SDS011;30729;49.486;10.792;2023-05-07T08:09:19;12.20;;;7.28;;
44995;SDS011;30729;49.486;10.792;2023-05-07T08:11:44;10.55;;;7.80;;
44995;SDS011;30729;49.486;10.792;2023-05-07T08:14:09;11.38;;;7.50;;
44995;SDS011;30729;49.486;10.792;2023-05-07T08:16:34;11.73;;;7.57;;
44995;SDS011;30729;49.486;10.792;2023-05-07T08:19:00;11.77;;;7.50;;
44995;SDS011;30729;49.486;10.792;2023-05-07T08:21:25;11.02;;;7.20;;
44995;SDS011;30729;49.486;10.792;2023-05-07T08:23:51;10.63;;;7.15;;
44995;SDS011;30729;49.486;10.792;2023-05-07T08:26:16;10.43;;;7.25;;
44995;SDS011;30729;49.486;10.792;2023-05-07T08:28:41;12.13;;;7.20;;
44995;SDS011;30729;49.486;10.792;2023-05-07T08:31:06;10.07;;;7.13;;
44995;SDS011;30729;49.486;10.792;2023-05-07T08:33:31;13.20;;;7.27;;
44995;SDS011;30729;49.486;10.792;2023-05-07T08:35:56;10.37;;;6.87;;
44995;SDS011;30729;49.486;10.792;2023-05-07T08:38:22;9.85;;;6.93;;
44995;SDS011;30729;49.486;10.792;2023-05-07T08:40:47;12.03;;;6.77;;
44995;SDS011;30729;49.486;10.792;2023-05-07T08:43:12;10.60;;;6.72;;
44995;SDS011;30729;49.486;10.792;2023-05-07T08:45:37;10.45;;;7.30;;
44995;SDS011;30729;49.486;10.792;2023-05-07T08:48:05;10.95;;;6.95;;
44995;SDS011;30729;49.486;10.792;2023-05-07T08:50:34;11.13;;;6.18;;
44995;SDS011;30729;49.486;10.792;2023-05-07T08:53:00;9.50;;;6.45;;
44995;SDS011;30729;49.486;10.792;2023-05-07T08:55:25;9.88;;;6.20;;
44995;SDS011;30729;49.486;10.792;2023-05-07T08:57:50;10.82;;;6.95;;
44995;SDS011;30729;49.486;10.792;2023-05-07T09:00:17;10.70;;;6.85;;
44995;SDS011;30729;49.486;10.792;2023-05-07T09:02:42;9.95;;;6.18;;
44995;SDS011;30729;49.486;10.792;2023-05-07T09:05:08;8.98;;;6.35;;
44995;SDS011;30729;49.486;10.792;2023-05-07T09:07:33;9.27;;;5.55;;
44995;SDS011;30729;49.486;10.792;2023-05-07T09:10:00;8.18;;;5.78;;
44995;SDS011;30729;49.486;10.792;2023-05-07T09:12:26;11.20;;;6.45;;
44995;SDS011;30729;49.486;10.792;2023-05-07T09:14:51;9.45;;;6.28;;
44995;SDS011;30729;49.486;10.792;2023-05-07T09:17:16;9.68;;;5.90;;
44995;SDS011;30729;49.486;10.792;2023-05-07T09:19:42;9.98;;;6.43;;
44995;SDS011;30729;49.486;10.792;2023-05-07T09:22:08;11.73;;;5.93;;
44995;SDS011;30729;49.486;10.792;2023-05-07T09:24:33;9.80;;;6.75;;
44995;SDS011;30729;49.486;10.792;2023-05-07T09:27:03;8.88;;;6.25;;
44995;SDS011;30729;49.486;10.792;2023-05-07T09:29:28;9.98;;;6.50;;
44995;SDS011;30729;49.486;10.792;2023-05-07T09:31:55;9.88;;;6.25;;
44995;SDS011;30729;49.486;10.792;2023-05-07T09:34:20;8.95;;;6.00;;
44995;SDS011;30729;49.486;10.792;2023-05-07T09:36:46;8.82;;;5.72;;
44995;SDS011;30729;49.486;10.792;2023-05-07T09:39:11;10.05;;;5.60;;
44995;SDS011;30729;49.486;10.792;2023-05-07T09:41:44;8.13;;;5.30;;
44995;SDS011;30729;49.486;10.792;2023-05-07T09:44:10;9.88;;;6.85;;
44995;SDS011;30729;49.486;10.792;2023-05-07T09:46:36;10.48;;;6.40;;
44995;SDS011;30729;49.486;10.792;2023-05-07T09:49:02;9.65;;;6.55;;
44995;SDS011;30729;49.486;10.792;2023-05-07T09:51:34;10.75;;;6.15;;
44995;SDS011;30729;49.486;10.792;2023-05-07T09:54:01;7.78;;;4.88;;
44995;SDS011;30729;49.486;10.792;2023-05-07T09:56:29;10.95;;;4.75;;
44995;SDS011;30729;49.486;10.792;2023-05-07T09:58:54;11.77;;;5.40;;
44995;SDS011;30729;49.486;10.792;2023-05-07T10:01:21;9.50;;;5.13;;
44995;SDS011;30729;49.486;10.792;2023-05-07T10:03:47;8.10;;;5.13;;
44995;SDS011;30729;49.486;10.792;2023-05-07T10:06:13;9.15;;;4.45;;
44995;SDS011;30729;49.486;10.792;2023-05-07T10:08:39;7.10;;;4.18;;
44995;SDS011;30729;49.486;10.792;2023-05-07T10:11:05;8.15;;;5.10;;
44995;SDS011;30729;49.486;10.792;2023-05-07T10:13:31;9.45;;;5.63;;
44995;SDS011;30729;49.486;10.792;2023-05-07T10:15:56;9.93;;;4.65;;
44995;SDS011;30729;49.486;10.792;2023-05-07T10:18:21;9.02;;;5.10;;
44995;SDS011;30729;49.486;10.792;2023-05-07T10:20:54;8.82;;;5.00;;
44995;SDS011;30729;49.486;10.792;2023-05-07T10:23:23;9.45;;;6.25;;
44995;SDS011;30729;49.486;10.792;2023-05-07T10:25:48;8.13;;;5.30;;
44995;SDS011;30729;49.486;10.792;2023-05-07T10:28:14;7.97;;;5.35;;
44995;SDS011;30729;49.486;10.792;2023-05-07T10:33:23;10.38;;;5.43;;
44995;SDS011;30729;49.486;10.792;2023-05-07T10:35:48;9.45;;;5.30;;
44995;SDS011;30729;49.486;10.792;2023-05-07T10:38:13;10.23;;;5.60;;
44995;SDS011;30729;49.486;10.792;2023-05-07T10:40:39;10.27;;;5.40;;
44995;SDS011;30729;49.486;10.792;2023-05-07T10:43:04;8.10;;;5.32;;
44995;SDS011;30729;49.486;10.792;2023-05-07T10:45:30;8.35;;;5.63;;
44995;SDS011;30729;49.486;10.792;2023-05-07T10:48:09;9.57;;;5.22;;
44995;SDS011;30729;49.486;10.792;2023-05-07T10:50:35;7.63;;;5.22;;
44995;SDS011;30729;49.486;10.792;2023-05-07T10:55:46;10.77;;;5.30;;
44995;SDS011;30729;49.486;10.792;2023-05-07T11:00:45;6.95;;;4.45;;
44995;SDS011;30729;49.486;10.792;2023-05-07T11:03:11;5.78;;;4.00;;
44995;SDS011;30729;49.486;10.792;2023-05-07T11:05:36;7.13;;;4.60;;
44995;SDS011;30729;49.486;10.792;2023-05-07T11:08:02;7.72;;;4.88;;
44995;SDS011;30729;49.486;10.792;2023-05-07T11:13:11;6.85;;;4.18;;
44995;SDS011;30729;49.486;10.792;2023-05-07T11:15:44;7.68;;;4.78;;
44995;SDS011;30729;49.486;10.792;2023-05-07T11:18:10;5.85;;;4.15;;
44995;SDS011;30729;49.486;10.792;2023-05-07T11:20:45;8.13;;;4.90;;
44995;SDS011;30729;49.486;10.792;2023-05-07T11:26:05;6.20;;;3.75;;
44995;SDS011;30729;49.486;10.792;2023-05-07T11:28:31;7.10;;;4.35;;
44995;SDS011;30729;49.486;10.792;2023-05-07T11:31:01;7.10;;;4.50;;
44995;SDS011;30729;49.486;10.792;2023-05-07T11:33:26;7.20;;;4.03;;
44995;SDS011;30729;49.486;10.792;2023-05-07T11:35:55;6.30;;;3.95;;
44995;SDS011;30729;49.486;10.792;2023-05-07T11:38:20;7.15;;;3.63;;
44995;SDS011;30729;49.486;10.792;2023-05-07T11:40:52;6.60;;;4.00;;
44995;SDS011;30729;49.486;10.792;2023-05-07T11:43:18;7.55;;;4.45;;
44995;SDS011;30729;49.486;10.792;2023-05-07T11:45:44;6.70;;;3.97;;
44995;SDS011;30729;49.486;10.792;2023-05-07T11:48:09;6.15;;;4.20;;
44995;SDS011;30729;49.486;10.792;2023-05-07T11:50:34;6.93;;;4.23;;
44995;SDS011;30729;49.486;10.792;2023-05-07T11:52:59;8.30;;;4.47;;
44995;SDS011;30729;49.486;10.792;2023-05-07T11:55:24;6.80;;;3.90;;
44995;SDS011;30729;49.486;10.792;2023-05-07T11:57:51;6.70;;;4.18;;
44995;SDS011;30729;49.486;10.792;2023-05-07T12:00:16;7.45;;;4.10;;
44995;SDS011;30729;49.486;10.792;2023-05-07T12:02:42;5.72;;;4.03;;
44995;SDS011;30729;49.486;10.792;2023-05-07T12:05:07;8.52;;;4.40;;
44995;SDS011;30729;49.486;10.792;2023-05-07T12:07:33;5.95;;;4.03;;
44995;SDS011;30729;49.486;10.792;2023-05-07T12:09:58;5.13;;;3.35;;
44995;SDS011;30729;49.486;10.792;2023-05-07T12:12:23;5.80;;;3.57;;
44995;SDS011;30729;49.486;10.792;2023-05-07T12:14:49;7.18;;;4.43;;
44995;SDS011;30729;49.486;10.792;2023-05-07T12:17:14;7.18;;;3.75;;
44995;SDS011;30729;49.486;10.792;2023-05-07T12:19:40;6.45;;;3.78;;
44995;SDS011;30729;49.486;10.792;2023-05-07T12:22:09;8.18;;;3.72;;
44995;SDS011;30729;49.486;10.792;2023-05-07T12:27:09;7.18;;;3.13;;
44995;SDS011;30729;49.486;10.792;2023-05-07T12:29:34;6.33;;;3.50;;
44995;SDS011;30729;49.486;10.792;2023-05-07T12:31:59;6.15;;;3.50;;
44995;SDS011;30729;49.486;10.792;2023-05-07T12:34:24;7.13;;;3.90;;
44995;SDS011;30729;49.486;10.792;2023-05-07T12:36:49;6.67;;;4.03;;
44995;SDS011;30729;49.486;10.792;2023-05-07T12:39:15;5.38;;;3.65;;
44995;SDS011;30729;49.486;10.792;2023-05-07T12:41:56;6.35;;;3.65;;
44995;SDS011;30729;49.486;10.792;2023-05-07T12:44:22;6.63;;;3.65;;
44995;SDS011;30729;49.486;10.792;2023-05-07T12:46:47;6.07;;;3.60;;
44995;SDS011;30729;49.486;10.792;2023-05-07T12:49:12;7.35;;;3.63;;
44995;SDS011;30729;49.486;10.792;2023-05-07T12:51:37;6.70;;;4.07;;
44995;SDS011;30729;49.486;10.792;2023-05-07T12:54:03;6.30;;;4.37;;
44995;SDS011;30729;49.486;10.792;2023-05-07T13:02:08;5.75;;;3.63;;
44995;SDS011;30729;49.486;10.792;2023-05-07T13:04:34;8.13;;;4.05;;
44995;SDS011;30729;49.486;10.792;2023-05-07T13:07:00;6.20;;;3.47;;
44995;SDS011;30729;49.486;10.792;2023-05-07T13:09:25;5.10;;;3.42;;
44995;SDS011;30729;49.486;10.792;2023-05-07T13:11:50;6.28;;;3.70;;
44995;SDS011;30729;49.486;10.792;2023-05-07T13:14:16;4.68;;;2.90;;
44995;SDS011;30729;49.486;10.792;2023-05-07T13:16:41;6.43;;;3.17;;
44995;SDS011;30729;49.486;10.792;2023-05-07T13:19:06;6.40;;;3.58;;
44995;SDS011;30729;49.486;10.792;2023-05-07T13:21:31;5.97;;;3.43;;
44995;SDS011;30729;49.486;10.792;2023-05-07T13:23:57;5.70;;;3.15;;
44995;SDS011;30729;49.486;10.792;2023-05-07T13:32:03;6.45;;;3.35;;
44995;SDS011;30729;49.486;10.792;2023-05-07T13:34:28;6.40;;;3.22;;
44995;SDS011;30729;49.486;10.792;2023-05-07T13:36:53;5.17;;;3.10;;
44995;SDS011;30729;49.486;10.792;2023-05-07T13:39:18;6.82;;;3.38;;
44995;SDS011;30729;49.486;10.792;2023-05-07T13:41:43;5.28;;;3.20;;
44995;SDS011;30729;49.486;10.792;2023-05-07T13:44:09;4.93;;;3.13;;
44995;SDS011;30729;49.486;10.792;2023-05-07T13:46:34;7.95;;;3.67;;
44995;SDS011;30729;49.486;10.792;2023-05-07T13:49:00;5.53;;;3.17;;
44995;SDS011;30729;49.486;10.792;2023-05-07T13:51:25;6.43;;;3.47;;
44995;SDS011;30729;49.486;10.792;2023-05-07T13:53:50;5.25;;;3.35;;
44995;SDS011;30729;49.486;10.792;2023-05-07T13:56:17;6.60;;;3.20;;
44995;SDS011;30729;49.486;10.792;2023-05-07T13:58:42;6.50;;;3.60;;
44995;SDS011;30729;49.486;10.792;2023-05-07T14:01:07;5.55;;;3.35;;
44995;SDS011;30729;49.486;10.792;2023-05-07T14:03:32;7.50;;;3.90;;
44995;SDS011;30729;49.486;10.792;2023-05-07T14:05:58;9.43;;;3.58;;
44995;SDS011;30729;49.486;10.792;2023-05-07T14:08:24;6.47;;;3.25;;
44995;SDS011;30729;49.486;10.792;2023-05-07T14:10:50;7.00;;;3.30;;
44995;SDS011;30729;49.486;10.792;2023-05-07T14:13:15;6.43;;;3.10;;
44995;SDS011;30729;49.486;10.792;2023-05-07T14:15:40;6.00;;;3.40;;
44995;SDS011;30729;49.486;10.792;2023-05-07T14:18:07;5.72;;;3.40;;
44995;SDS011;30729;49.486;10.792;2023-05-07T14:20:32;10.48;;;3.80;;
44995;SDS011;30729;49.486;10.792;2023-05-07T14:22:57;6.85;;;3.20;;
44995;SDS011;30729;49.486;10.792;2023-05-07T14:25:22;5.70;;;2.97;;
44995;SDS011;30729;49.486;10.792;2023-05-07T14:27:47;5.47;;;3.13;;
44995;SDS011;30729;49.486;10.792;2023-05-07T14:30:12;4.68;;;2.65;;
44995;SDS011;30729;49.486;10.792;2023-05-07T14:32:38;6.85;;;3.38;;
44995;SDS011;30729;49.486;10.792;2023-05-07T14:35:03;5.28;;;3.00;;
44995;SDS011;30729;49.486;10.792;2023-05-07T14:37:28;5.93;;;2.92;;
44995;SDS011;30729;49.486;10.792;2023-05-07T14:39:53;5.45;;;2.92;;
44995;SDS011;30729;49.486;10.792;2023-05-07T14:42:18;7.65;;;3.55;;
44995;SDS011;30729;49.486;10.792;2023-05-07T14:44:44;5.13;;;2.80;;
44995;SDS011;30729;49.486;10.792;2023-05-07T14:47:10;5.32;;;2.78;;